sensor_id;sensor_type;location;lat;lon;timestamp;P1;durP1;ratioP1;P2;durP2;ratioP2
75687;SDS011;64300;45.034;38.910;2022-11-15T00:01:09;95.15;;;42.35;;
75687;SDS011;64300;45.034;38.910;2022-11-15T00:03:59;98.57;;;43.45;;
75687;SDS011;64300;45.034;38.910;2022-11-15T00:06:43;99.30;;;45.38;;
75687;SDS011;64300;45.034;38.910;2022-11-15T00:09:27;90.70;;;38.25;;
75687;SDS011;64300;45.034;38.910;2022-11-15T00:12:15;99.25;;;43.83;;
75687;SDS011;64300;45.034;38.910;2022-11-15T00:14:59;105.20;;;45.03;;
75687;SDS011;64300;45.034;38.910;2022-11-15T00:17:44;96.13;;;43.53;;
75687;SDS011;64300;45.034;38.910;2022-11-15T00:20:38;100.03;;;44.08;;
75687;SDS011;64300;45.034;38.910;2022-11-15T00:23:22;96.78;;;42.95;;
75687;SDS011;64300;45.034;38.910;2022-11-15T00:26:10;98.72;;;44.58;;
75687;SDS011;64300;45.034;38.910;2022-11-15T00:28:56;101.43;;;43.90;;
75687;SDS011;64300;45.034;38.910;2022-11-15T00:31:40;98.75;;;40.20;;
75687;SDS011;64300;45.034;38.910;2022-11-15T00:34:25;89.97;;;38.58;;
75687;SDS011;64300;45.034;38.910;2022-11-15T00:37:09;97.93;;;43.13;;
75687;SDS011;64300;45.034;38.910;2022-11-15T00:39:54;87.82;;;36.67;;
75687;SDS011;64300;45.034;38.910;2022-11-15T00:42:38;65.90;;;35.00;;
75687;SDS011;64300;45.034;38.910;2022-11-15T00:45:23;78.97;;;33.08;;
75687;SDS011;64300;45.034;38.910;2022-11-15T00:48:09;137.90;;;33.22;;
75687;SDS011;64300;45.034;38.910;2022-11-15T00:50:54;138.20;;;32.80;;
75687;SDS011;64300;45.034;38.910;2022-11-15T00:53:38;89.35;;;34.65;;
75687;SDS011;64300;45.034;38.910;2022-11-15T00:56:23;141.00;;;36.70;;
75687;SDS011;64300;45.034;38.910;2022-11-15T00:59:07;116.13;;;35.70;;
75687;SDS011;64300;45.034;38.910;2022-11-15T01:01:52;126.78;;;35.38;;
75687;SDS011;64300;45.034;38.910;2022-11-15T01:04:36;78.75;;;34.65;;
75687;SDS011;64300;45.034;38.910;2022-11-15T01:07:36;108.97;;;35.80;;
75687;SDS011;64300;45.034;38.910;2022-11-15T01:11:27;172.43;;;41.03;;
75687;SDS011;64300;45.034;38.910;2022-11-15T01:14:30;159.93;;;42.20;;
75687;SDS011;64300;45.034;38.910;2022-11-15T01:17:15;273.60;;;44.35;;
75687;SDS011;64300;45.034;38.910;2022-11-15T01:20:00;253.90;;;43.92;;
75687;SDS011;64300;45.034;38.910;2022-11-15T01:22:44;150.70;;;46.33;;
75687;SDS011;64300;45.034;38.910;2022-11-15T01:25:29;149.13;;;44.90;;
75687;SDS011;64300;45.034;38.910;2022-11-15T01:28:13;149.85;;;44.30;;
75687;SDS011;64300;45.034;38.910;2022-11-15T01:31:06;116.82;;;40.85;;
75687;SDS011;64300;45.034;38.910;2022-11-15T01:34:28;132.43;;;42.78;;
75687;SDS011;64300;45.034;38.910;2022-11-15T01:37:14;89.45;;;38.72;;
75687;SDS011;64300;45.034;38.910;2022-11-15T01:39:58;122.80;;;39.38;;
75687;SDS011;64300;45.034;38.910;2022-11-15T01:42:43;143.68;;;42.15;;
75687;SDS011;64300;45.034;38.910;2022-11-15T01:45:30;94.43;;;38.33;;
75687;SDS011;64300;45.034;38.910;2022-11-15T01:48:19;105.75;;;39.50;;
75687;SDS011;64300;45.034;38.910;2022-11-15T01:51:08;99.88;;;38.53;;
75687;SDS011;64300;45.034;38.910;2022-11-15T01:53:56;163.35;;;42.88;;
75687;SDS011;64300;45.034;38.910;2022-11-15T01:56:56;177.45;;;41.10;;
75687;SDS011;64300;45.034;38.910;2022-11-15T01:59:45;253.00;;;38.08;;
75687;SDS011;64300;45.034;38.910;2022-11-15T02:02:30;153.02;;;32.33;;
75687;SDS011;64300;45.034;38.910;2022-11-15T02:05:16;122.90;;;33.08;;
75687;SDS011;64300;45.034;38.910;2022-11-15T02:08:01;167.00;;;33.67;;
75687;SDS011;64300;45.034;38.910;2022-11-15T02:10:46;187.32;;;33.58;;
75687;SDS011;64300;45.034;38.910;2022-11-15T02:13:31;160.02;;;33.83;;
75687;SDS011;64300;45.034;38.910;2022-11-15T02:16:24;195.75;;;33.55;;
75687;SDS011;64300;45.034;38.910;2022-11-15T02:22:45;173.25;;;33.63;;
75687;SDS011;64300;45.034;38.910;2022-11-15T02:28:58;110.35;;;34.15;;
75687;SDS011;64300;45.034;38.910;2022-11-15T02:44:42;106.38;;;32.85;;
75687;SDS011;64300;45.034;38.910;2022-11-15T02:47:09;131.93;;;33.17;;
75687;SDS011;64300;45.034;38.910;2022-11-15T02:50:07;111.57;;;34.70;;
75687;SDS011;64300;45.034;38.910;2022-11-15T02:52:53;122.85;;;32.40;;
75687;SDS011;64300;45.034;38.910;2022-11-15T02:55:43;91.38;;;33.53;;
75687;SDS011;64300;45.034;38.910;2022-11-15T03:14:01;71.35;;;29.98;;
75687;SDS011;64300;45.034;38.910;2022-11-15T03:35:30;60.17;;;26.08;;
75687;SDS011;64300;45.034;38.910;2022-11-15T03:41:17;74.05;;;29.60;;
75687;SDS011;64300;45.034;38.910;2022-11-15T03:44:13;88.03;;;27.83;;
75687;SDS011;64300;45.034;38.910;2022-11-15T03:47:36;83.55;;;30.05;;
75687;SDS011;64300;45.034;38.910;2022-11-15T03:50:25;111.70;;;27.30;;
75687;SDS011;64300;45.034;38.910;2022-11-15T03:53:14;71.80;;;28.25;;
75687;SDS011;64300;45.034;38.910;2022-11-15T03:56:00;81.28;;;27.83;;
75687;SDS011;64300;45.034;38.910;2022-11-15T03:58:44;77.97;;;27.95;;
75687;SDS011;64300;45.034;38.910;2022-11-15T04:01:29;79.70;;;28.70;;
75687;SDS011;64300;45.034;38.910;2022-11-15T04:04:14;77.38;;;29.35;;
75687;SDS011;64300;45.034;38.910;2022-11-15T04:06:58;67.85;;;29.25;;
75687;SDS011;64300;45.034;38.910;2022-11-15T04:09:43;81.68;;;30.02;;
75687;SDS011;64300;45.034;38.910;2022-11-15T04:12:46;67.47;;;28.42;;
75687;SDS011;64300;45.034;38.910;2022-11-15T04:15:31;71.18;;;29.00;;
75687;SDS011;64300;45.034;38.910;2022-11-15T04:18:16;67.90;;;27.58;;
75687;SDS011;64300;45.034;38.910;2022-11-15T04:21:01;72.50;;;28.88;;
75687;SDS011;64300;45.034;38.910;2022-11-15T04:24:03;77.22;;;28.67;;
75687;SDS011;64300;45.034;38.910;2022-11-15T04:26:51;89.35;;;31.45;;
75687;SDS011;64300;45.034;38.910;2022-11-15T04:29:36;72.45;;;30.90;;
75687;SDS011;64300;45.034;38.910;2022-11-15T04:32:20;72.93;;;27.67;;
75687;SDS011;64300;45.034;38.910;2022-11-15T04:35:04;84.72;;;31.25;;
75687;SDS011;64300;45.034;38.910;2022-11-15T04:37:49;82.80;;;29.15;;
75687;SDS011;64300;45.034;38.910;2022-11-15T04:40:34;76.43;;;29.50;;
75687;SDS011;64300;45.034;38.910;2022-11-15T04:43:19;81.93;;;30.33;;
75687;SDS011;64300;45.034;38.910;2022-11-15T04:46:03;67.85;;;30.80;;
75687;SDS011;64300;45.034;38.910;2022-11-15T04:48:48;70.82;;;31.10;;
75687;SDS011;64300;45.034;38.910;2022-11-15T04:51:33;62.28;;;28.73;;
75687;SDS011;64300;45.034;38.910;2022-11-15T04:54:18;62.05;;;29.95;;
75687;SDS011;64300;45.034;38.910;2022-11-15T04:57:02;73.28;;;28.23;;
75687;SDS011;64300;45.034;38.910;2022-11-15T05:02:38;59.33;;;26.80;;
75687;SDS011;64300;45.034;38.910;2022-11-15T05:05:42;62.58;;;25.10;;
75687;SDS011;64300;45.034;38.910;2022-11-15T05:08:26;50.30;;;26.17;;
75687;SDS011;64300;45.034;38.910;2022-11-15T05:11:11;52.05;;;26.48;;
75687;SDS011;64300;45.034;38.910;2022-11-15T05:13:56;49.85;;;26.38;;
75687;SDS011;64300;45.034;38.910;2022-11-15T05:16:41;48.45;;;22.88;;
75687;SDS011;64300;45.034;38.910;2022-11-15T05:19:26;55.33;;;25.42;;
75687;SDS011;64300;45.034;38.910;2022-11-15T05:22:10;48.20;;;23.60;;
75687;SDS011;64300;45.034;38.910;2022-11-15T05:24:55;47.88;;;24.27;;
75687;SDS011;64300;45.034;38.910;2022-11-15T05:27:39;45.28;;;21.20;;
75687;SDS011;64300;45.034;38.910;2022-11-15T05:30:24;46.35;;;24.38;;
75687;SDS011;64300;45.034;38.910;2022-11-15T05:33:08;46.45;;;22.95;;
75687;SDS011;64300;45.034;38.910;2022-11-15T05:36:00;50.28;;;24.65;;
75687;SDS011;64300;45.034;38.910;2022-11-15T05:39:07;51.25;;;25.60;;
75687;SDS011;64300;45.034;38.910;2022-11-15T05:41:55;59.45;;;25.48;;
75687;SDS011;64300;45.034;38.910;2022-11-15T05:47:37;65.50;;;29.20;;
75687;SDS011;64300;45.034;38.910;2022-11-15T05:50:23;69.47;;;29.23;;
75687;SDS011;64300;45.034;38.910;2022-11-15T05:53:08;59.88;;;30.08;;
75687;SDS011;64300;45.034;38.910;2022-11-15T05:55:54;69.93;;;32.10;;
75687;SDS011;64300;45.034;38.910;2022-11-15T05:58:38;66.07;;;28.67;;
75687;SDS011;64300;45.034;38.910;2022-11-15T06:01:24;68.25;;;31.67;;
75687;SDS011;64300;45.034;38.910;2022-11-15T06:04:09;95.47;;;33.88;;
75687;SDS011;64300;45.034;38.910;2022-11-15T06:06:53;82.35;;;34.15;;
75687;SDS011;64300;45.034;38.910;2022-11-15T06:09:38;90.47;;;32.42;;
75687;SDS011;64300;45.034;38.910;2022-11-15T06:12:22;89.45;;;33.33;;
75687;SDS011;64300;45.034;38.910;2022-11-15T06:15:08;86.63;;;34.40;;
75687;SDS011;64300;45.034;38.910;2022-11-15T06:17:52;72.25;;;32.70;;
75687;SDS011;64300;45.034;38.910;2022-11-15T06:20:41;81.95;;;32.47;;
75687;SDS011;64300;45.034;38.910;2022-11-15T06:23:25;85.55;;;33.00;;
75687;SDS011;64300;45.034;38.910;2022-11-15T06:26:10;72.78;;;29.30;;
75687;SDS011;64300;45.034;38.910;2022-11-15T06:28:54;81.10;;;30.88;;
75687;SDS011;64300;45.034;38.910;2022-11-15T06:31:39;82.05;;;29.55;;
75687;SDS011;64300;45.034;38.910;2022-11-15T06:34:23;107.03;;;30.63;;
75687;SDS011;64300;45.034;38.910;2022-11-15T06:37:08;77.82;;;28.85;;
75687;SDS011;64300;45.034;38.910;2022-11-15T06:39:52;70.20;;;29.70;;
75687;SDS011;64300;45.034;38.910;2022-11-15T06:42:38;77.32;;;29.08;;
75687;SDS011;64300;45.034;38.910;2022-11-15T06:45:22;72.53;;;28.08;;
75687;SDS011;64300;45.034;38.910;2022-11-15T06:48:06;66.85;;;26.38;;
75687;SDS011;64300;45.034;38.910;2022-11-15T06:50:52;67.57;;;27.63;;
75687;SDS011;64300;45.034;38.910;2022-11-15T06:53:40;62.40;;;25.90;;
75687;SDS011;64300;45.034;38.910;2022-11-15T06:56:26;70.13;;;26.92;;
75687;SDS011;64300;45.034;38.910;2022-11-15T06:59:11;55.60;;;25.60;;
75687;SDS011;64300;45.034;38.910;2022-11-15T07:01:56;55.40;;;26.17;;
75687;SDS011;64300;45.034;38.910;2022-11-15T07:04:40;63.38;;;26.70;;
75687;SDS011;64300;45.034;38.910;2022-11-15T07:07:31;64.38;;;28.08;;
75687;SDS011;64300;45.034;38.910;2022-11-15T07:10:15;55.10;;;26.10;;
75687;SDS011;64300;45.034;38.910;2022-11-15T07:13:00;56.95;;;24.25;;
75687;SDS011;64300;45.034;38.910;2022-11-15T07:18:36;52.42;;;24.52;;
75687;SDS011;64300;45.034;38.910;2022-11-15T07:21:21;51.30;;;22.33;;
75687;SDS011;64300;45.034;38.910;2022-11-15T07:24:06;49.55;;;22.35;;
75687;SDS011;64300;45.034;38.910;2022-11-15T07:26:50;50.83;;;22.17;;
75687;SDS011;64300;45.034;38.910;2022-11-15T07:29:35;55.28;;;24.67;;
75687;SDS011;64300;45.034;38.910;2022-11-15T07:32:19;52.00;;;21.77;;
75687;SDS011;64300;45.034;38.910;2022-11-15T07:35:04;52.97;;;24.20;;
75687;SDS011;64300;45.034;38.910;2022-11-15T07:40:40;53.05;;;23.10;;
75687;SDS011;64300;45.034;38.910;2022-11-15T07:43:24;52.08;;;23.13;;
75687;SDS011;64300;45.034;38.910;2022-11-15T07:46:11;61.47;;;25.20;;
75687;SDS011;64300;45.034;38.910;2022-11-15T07:48:56;51.15;;;21.63;;
75687;SDS011;64300;45.034;38.910;2022-11-15T07:54:25;44.67;;;21.92;;
75687;SDS011;64300;45.034;38.910;2022-11-15T07:57:10;50.50;;;22.48;;
75687;SDS011;64300;45.034;38.910;2022-11-15T07:59:54;43.78;;;20.77;;
75687;SDS011;64300;45.034;38.910;2022-11-15T08:02:39;44.08;;;20.60;;
75687;SDS011;64300;45.034;38.910;2022-11-15T08:05:23;47.22;;;22.00;;
75687;SDS011;64300;45.034;38.910;2022-11-15T08:08:09;51.13;;;22.48;;
75687;SDS011;64300;45.034;38.910;2022-11-15T08:10:56;58.58;;;23.50;;
75687;SDS011;64300;45.034;38.910;2022-11-15T08:13:42;46.50;;;22.27;;
75687;SDS011;64300;45.034;38.910;2022-11-15T08:16:26;43.83;;;20.38;;
75687;SDS011;64300;45.034;38.910;2022-11-15T08:19:13;49.00;;;20.35;;
75687;SDS011;64300;45.034;38.910;2022-11-15T08:21:58;47.85;;;21.63;;
75687;SDS011;64300;45.034;38.910;2022-11-15T08:24:42;43.83;;;19.40;;
75687;SDS011;64300;45.034;38.910;2022-11-15T08:27:29;46.38;;;21.00;;
75687;SDS011;64300;45.034;38.910;2022-11-15T08:30:14;45.50;;;20.30;;
75687;SDS011;64300;45.034;38.910;2022-11-15T08:32:59;44.13;;;20.10;;
75687;SDS011;64300;45.034;38.910;2022-11-15T08:38:55;24.63;;;8.70;;
75687;SDS011;64300;45.034;38.910;2022-11-15T08:41:39;15.98;;;7.80;;
75687;SDS011;64300;45.034;38.910;2022-11-15T08:44:24;18.00;;;7.10;;
75687;SDS011;64300;45.034;38.910;2022-11-15T08:47:10;18.95;;;7.90;;
75687;SDS011;64300;45.034;38.910;2022-11-15T08:49:55;17.15;;;8.57;;
75687;SDS011;64300;45.034;38.910;2022-11-15T08:52:40;15.65;;;8.68;;
75687;SDS011;64300;45.034;38.910;2022-11-15T08:55:25;15.82;;;7.60;;
75687;SDS011;64300;45.034;38.910;2022-11-15T08:58:09;12.95;;;6.53;;
75687;SDS011;64300;45.034;38.910;2022-11-15T09:00:54;13.20;;;6.07;;
75687;SDS011;64300;45.034;38.910;2022-11-15T09:03:39;12.32;;;4.82;;
75687;SDS011;64300;45.034;38.910;2022-11-15T09:06:24;12.43;;;4.85;;
75687;SDS011;64300;45.034;38.910;2022-11-15T09:09:09;14.93;;;5.63;;
75687;SDS011;64300;45.034;38.910;2022-11-15T09:11:54;9.35;;;4.95;;
75687;SDS011;64300;45.034;38.910;2022-11-15T09:14:39;15.70;;;4.70;;
75687;SDS011;64300;45.034;38.910;2022-11-15T09:17:23;16.10;;;4.97;;
75687;SDS011;64300;45.034;38.910;2022-11-15T09:20:08;9.38;;;4.85;;
75687;SDS011;64300;45.034;38.910;2022-11-15T09:23:01;12.85;;;5.00;;
75687;SDS011;64300;45.034;38.910;2022-11-15T09:25:46;10.55;;;4.75;;
75687;SDS011;64300;45.034;38.910;2022-11-15T09:31:17;13.10;;;6.32;;
75687;SDS011;64300;45.034;38.910;2022-11-15T09:34:01;14.35;;;6.25;;
75687;SDS011;64300;45.034;38.910;2022-11-15T09:36:48;19.30;;;6.35;;
75687;SDS011;64300;45.034;38.910;2022-11-15T09:39:33;12.95;;;6.18;;
75687;SDS011;64300;45.034;38.910;2022-11-15T09:45:15;14.98;;;6.63;;
75687;SDS011;64300;45.034;38.910;2022-11-15T09:48:28;13.02;;;6.55;;
75687;SDS011;64300;45.034;38.910;2022-11-15T09:51:32;17.13;;;6.80;;
75687;SDS011;64300;45.034;38.910;2022-11-15T09:56:50;21.58;;;7.60;;
75687;SDS011;64300;45.034;38.910;2022-11-15T09:59:38;16.70;;;8.35;;
75687;SDS011;64300;45.034;38.910;2022-11-15T10:05:08;15.43;;;7.88;;
75687;SDS011;64300;45.034;38.910;2022-11-15T10:07:45;14.90;;;7.60;;
75687;SDS011;64300;45.034;38.910;2022-11-15T10:13:01;16.02;;;7.90;;
75687;SDS011;64300;45.034;38.910;2022-11-15T10:15:27;17.70;;;7.32;;
75687;SDS011;64300;45.034;38.910;2022-11-15T10:20:59;14.80;;;7.45;;
75687;SDS011;64300;45.034;38.910;2022-11-15T10:23:35;17.00;;;8.05;;
75687;SDS011;64300;45.034;38.910;2022-11-15T10:28:30;14.82;;;7.57;;
75687;SDS011;64300;45.034;38.910;2022-11-15T10:30:57;16.52;;;7.50;;
75687;SDS011;64300;45.034;38.910;2022-11-15T10:46:40;17.55;;;7.50;;
75687;SDS011;64300;45.034;38.910;2022-11-15T10:49:20;13.27;;;6.68;;
75687;SDS011;64300;45.034;38.910;2022-11-15T10:52:01;13.57;;;7.07;;
75687;SDS011;64300;45.034;38.910;2022-11-15T10:54:44;15.32;;;6.70;;
75687;SDS011;64300;45.034;38.910;2022-11-15T10:57:18;10.98;;;5.70;;
75687;SDS011;64300;45.034;38.910;2022-11-15T10:59:52;11.90;;;6.72;;
75687;SDS011;64300;45.034;38.910;2022-11-15T11:02:31;14.57;;;7.07;;
75687;SDS011;64300;45.034;38.910;2022-11-15T11:05:00;15.95;;;7.63;;
75687;SDS011;64300;45.034;38.910;2022-11-15T11:07:31;16.08;;;6.80;;
75687;SDS011;64300;45.034;38.910;2022-11-15T11:10:20;15.52;;;7.18;;
75687;SDS011;64300;45.034;38.910;2022-11-15T11:12:49;14.95;;;6.78;;
75687;SDS011;64300;45.034;38.910;2022-11-15T11:15:15;19.40;;;7.28;;
75687;SDS011;64300;45.034;38.910;2022-11-15T11:20:24;15.05;;;7.05;;
75687;SDS011;64300;45.034;38.910;2022-11-15T11:39:52;14.60;;;7.65;;
75687;SDS011;64300;45.034;38.910;2022-11-15T11:43:12;16.48;;;7.10;;
75687;SDS011;64300;45.034;38.910;2022-11-15T11:45:32;15.07;;;7.45;;
75687;SDS011;64300;45.034;38.910;2022-11-15T11:51:27;14.77;;;6.38;;
75687;SDS011;64300;45.034;38.910;2022-11-15T11:54:00;13.02;;;6.90;;
75687;SDS011;64300;45.034;38.910;2022-11-15T11:56:36;10.48;;;6.20;;
75687;SDS011;64300;45.034;38.910;2022-11-15T12:01:58;14.02;;;7.07;;
75687;SDS011;64300;45.034;38.910;2022-11-15T12:04:55;14.55;;;6.50;;
75687;SDS011;64300;45.034;38.910;2022-11-15T12:07:32;11.13;;;6.05;;
75687;SDS011;64300;45.034;38.910;2022-11-15T12:13:00;18.08;;;7.32;;
75687;SDS011;64300;45.034;38.910;2022-11-15T12:15:37;11.07;;;6.53;;
75687;SDS011;64300;45.034;38.910;2022-11-15T12:18:11;17.15;;;7.05;;
75687;SDS011;64300;45.034;38.910;2022-11-15T12:20:41;18.80;;;7.20;;
75687;SDS011;64300;45.034;38.910;2022-11-15T12:23:20;11.32;;;5.78;;
75687;SDS011;64300;45.034;38.910;2022-11-15T12:26:37;16.98;;;7.60;;
75687;SDS011;64300;45.034;38.910;2022-11-15T12:28:55;15.23;;;7.10;;
75687;SDS011;64300;45.034;38.910;2022-11-15T12:34:43;14.13;;;7.35;;
75687;SDS011;64300;45.034;38.910;2022-11-15T12:57:32;14.38;;;7.55;;
75687;SDS011;64300;45.034;38.910;2022-11-15T13:02:35;16.25;;;7.18;;
75687;SDS011;64300;45.034;38.910;2022-11-15T13:12:59;13.10;;;7.28;;
75687;SDS011;64300;45.034;38.910;2022-11-15T13:18:31;16.33;;;7.93;;
75687;SDS011;64300;45.034;38.910;2022-11-15T13:21:00;17.42;;;7.03;;
75687;SDS011;64300;45.034;38.910;2022-11-15T13:23:26;18.45;;;7.97;;
75687;SDS011;64300;45.034;38.910;2022-11-15T13:28:47;14.73;;;6.78;;
75687;SDS011;64300;45.034;38.910;2022-11-15T13:31:36;13.25;;;6.28;;
75687;SDS011;64300;45.034;38.910;2022-11-15T13:37:02;13.88;;;6.30;;
75687;SDS011;64300;45.034;38.910;2022-11-15T13:41:56;15.32;;;7.50;;
75687;SDS011;64300;45.034;38.910;2022-11-15T13:44:24;17.83;;;7.43;;
75687;SDS011;64300;45.034;38.910;2022-11-15T13:47:01;17.85;;;7.68;;
75687;SDS011;64300;45.034;38.910;2022-11-15T13:49:30;19.38;;;9.68;;
75687;SDS011;64300;45.034;38.910;2022-11-15T13:51:58;20.80;;;9.90;;
75687;SDS011;64300;45.034;38.910;2022-11-15T13:54:35;23.73;;;11.05;;
75687;SDS011;64300;45.034;38.910;2022-11-15T13:57:12;27.02;;;12.30;;
75687;SDS011;64300;45.034;38.910;2022-11-15T13:59:46;30.45;;;11.30;;
75687;SDS011;64300;45.034;38.910;2022-11-15T14:02:18;24.35;;;10.80;;
75687;SDS011;64300;45.034;38.910;2022-11-15T14:04:53;25.33;;;10.95;;
75687;SDS011;64300;45.034;38.910;2022-11-15T14:07:23;26.17;;;10.63;;
75687;SDS011;64300;45.034;38.910;2022-11-15T14:09:51;27.23;;;11.25;;
75687;SDS011;64300;45.034;38.910;2022-11-15T14:12:34;31.15;;;11.82;;
75687;SDS011;64300;45.034;38.910;2022-11-15T14:15:18;29.40;;;12.65;;
75687;SDS011;64300;45.034;38.910;2022-11-15T14:17:55;29.85;;;11.98;;
75687;SDS011;64300;45.034;38.910;2022-11-15T14:23:04;22.67;;;10.02;;
75687;SDS011;64300;45.034;38.910;2022-11-15T14:25:58;23.75;;;10.65;;
75687;SDS011;64300;45.034;38.910;2022-11-15T14:28:34;21.27;;;8.63;;
75687;SDS011;64300;45.034;38.910;2022-11-15T14:32:29;22.10;;;8.25;;
75687;SDS011;64300;45.034;38.910;2022-11-15T14:35:18;27.50;;;8.38;;
75687;SDS011;64300;45.034;38.910;2022-11-15T14:41:23;18.20;;;7.70;;
75687;SDS011;64300;45.034;38.910;2022-11-15T14:43:54;16.13;;;8.30;;
75687;SDS011;64300;45.034;38.910;2022-11-15T14:46:23;17.92;;;7.90;;
75687;SDS011;64300;45.034;38.910;2022-11-15T14:48:49;24.08;;;8.90;;
75687;SDS011;64300;45.034;38.910;2022-11-15T15:01:23;17.33;;;7.70;;
75687;SDS011;64300;45.034;38.910;2022-11-15T15:03:51;20.75;;;7.90;;
75687;SDS011;64300;45.034;38.910;2022-11-15T15:06:19;15.20;;;7.65;;
75687;SDS011;64300;45.034;38.910;2022-11-15T15:08:46;16.00;;;7.75;;
75687;SDS011;64300;45.034;38.910;2022-11-15T15:11:14;16.63;;;7.95;;
75687;SDS011;64300;45.034;38.910;2022-11-15T15:16:39;17.80;;;8.27;;
75687;SDS011;64300;45.034;38.910;2022-11-15T15:19:06;19.40;;;8.25;;
75687;SDS011;64300;45.034;38.910;2022-11-15T15:21:32;20.30;;;7.85;;
75687;SDS011;64300;45.034;38.910;2022-11-15T15:23:58;19.17;;;8.20;;
75687;SDS011;64300;45.034;38.910;2022-11-15T15:26:24;17.23;;;7.57;;
75687;SDS011;64300;45.034;38.910;2022-11-15T15:28:50;22.70;;;7.63;;
75687;SDS011;64300;45.034;38.910;2022-11-15T15:31:17;19.52;;;7.35;;
75687;SDS011;64300;45.034;38.910;2022-11-15T15:33:43;15.82;;;7.53;;
75687;SDS011;64300;45.034;38.910;2022-11-15T15:36:14;13.93;;;7.45;;
75687;SDS011;64300;45.034;38.910;2022-11-15T15:38:43;18.88;;;7.30;;
75687;SDS011;64300;45.034;38.910;2022-11-15T15:41:10;17.23;;;7.05;;
75687;SDS011;64300;45.034;38.910;2022-11-15T15:43:37;18.30;;;7.40;;
75687;SDS011;64300;45.034;38.910;2022-11-15T15:46:04;16.10;;;7.55;;
75687;SDS011;64300;45.034;38.910;2022-11-15T15:48:34;17.02;;;7.55;;
75687;SDS011;64300;45.034;38.910;2022-11-15T15:51:02;17.63;;;7.95;;
75687;SDS011;64300;45.034;38.910;2022-11-15T15:53:28;18.15;;;8.50;;
75687;SDS011;64300;45.034;38.910;2022-11-15T15:55:55;20.50;;;8.52;;
75687;SDS011;64300;45.034;38.910;2022-11-15T15:58:21;16.75;;;8.77;;
75687;SDS011;64300;45.034;38.910;2022-11-15T16:00:53;20.35;;;9.10;;
75687;SDS011;64300;45.034;38.910;2022-11-15T16:03:19;25.98;;;8.75;;
75687;SDS011;64300;45.034;38.910;2022-11-15T16:05:45;19.25;;;8.48;;
75687;SDS011;64300;45.034;38.910;2022-11-15T16:08:18;21.70;;;9.23;;
75687;SDS011;64300;45.034;38.910;2022-11-15T16:10:45;17.42;;;8.18;;
75687;SDS011;64300;45.034;38.910;2022-11-15T16:13:14;18.90;;;8.50;;
75687;SDS011;64300;45.034;38.910;2022-11-15T16:15:41;17.80;;;8.68;;
75687;SDS011;64300;45.034;38.910;2022-11-15T16:18:09;19.70;;;8.40;;
75687;SDS011;64300;45.034;38.910;2022-11-15T16:20:41;19.15;;;8.15;;
75687;SDS011;64300;45.034;38.910;2022-11-15T16:23:21;22.05;;;9.60;;
75687;SDS011;64300;45.034;38.910;2022-11-15T16:25:54;14.57;;;8.98;;
75687;SDS011;64300;45.034;38.910;2022-11-15T16:28:22;17.33;;;8.77;;
75687;SDS011;64300;45.034;38.910;2022-11-15T16:31:02;21.50;;;8.60;;
75687;SDS011;64300;45.034;38.910;2022-11-15T16:33:30;17.92;;;8.13;;
75687;SDS011;64300;45.034;38.910;2022-11-15T16:36:00;17.88;;;8.75;;
75687;SDS011;64300;45.034;38.910;2022-11-15T16:38:26;18.15;;;8.02;;
75687;SDS011;64300;45.034;38.910;2022-11-15T16:40:52;16.38;;;8.23;;
75687;SDS011;64300;45.034;38.910;2022-11-15T16:43:18;16.10;;;7.88;;
75687;SDS011;64300;45.034;38.910;2022-11-15T16:45:44;18.63;;;9.15;;
75687;SDS011;64300;45.034;38.910;2022-11-15T16:48:43;22.83;;;9.07;;
75687;SDS011;64300;45.034;38.910;2022-11-15T16:51:04;20.38;;;9.68;;
75687;SDS011;64300;45.034;38.910;2022-11-15T16:55:56;16.88;;;8.30;;
75687;SDS011;64300;45.034;38.910;2022-11-15T16:58:22;22.33;;;9.13;;
75687;SDS011;64300;45.034;38.910;2022-11-15T17:00:53;16.42;;;8.75;;
75687;SDS011;64300;45.034;38.910;2022-11-15T17:03:23;18.40;;;8.63;;
75687;SDS011;64300;45.034;38.910;2022-11-15T17:05:49;18.75;;;8.45;;
75687;SDS011;64300;45.034;38.910;2022-11-15T17:08:16;16.60;;;8.20;;
75687;SDS011;64300;45.034;38.910;2022-11-15T17:10:48;19.00;;;8.10;;
75687;SDS011;64300;45.034;38.910;2022-11-15T17:13:14;23.88;;;8.70;;
75687;SDS011;64300;45.034;38.910;2022-11-15T17:15:40;14.63;;;8.05;;
75687;SDS011;64300;45.034;38.910;2022-11-15T17:18:09;13.30;;;7.65;;
75687;SDS011;64300;45.034;38.910;2022-11-15T17:20:37;16.80;;;8.30;;
75687;SDS011;64300;45.034;38.910;2022-11-15T17:23:02;16.83;;;8.68;;
75687;SDS011;64300;45.034;38.910;2022-11-15T17:25:28;15.63;;;7.97;;
75687;SDS011;64300;45.034;38.910;2022-11-15T17:27:55;16.70;;;7.55;;
75687;SDS011;64300;45.034;38.910;2022-11-15T17:30:20;15.45;;;7.82;;
75687;SDS011;64300;45.034;38.910;2022-11-15T17:32:46;16.55;;;7.68;;
75687;SDS011;64300;45.034;38.910;2022-11-15T17:35:14;21.25;;;8.18;;
75687;SDS011;64300;45.034;38.910;2022-11-15T17:37:40;15.85;;;8.10;;
75687;SDS011;64300;45.034;38.910;2022-11-15T17:40:09;18.30;;;7.75;;
75687;SDS011;64300;45.034;38.910;2022-11-15T17:42:39;16.95;;;8.55;;
75687;SDS011;64300;45.034;38.910;2022-11-15T17:47:39;24.50;;;8.25;;
75687;SDS011;64300;45.034;38.910;2022-11-15T17:54:09;18.88;;;7.80;;
75687;SDS011;64300;45.034;38.910;2022-11-15T17:56:40;17.58;;;8.23;;
75687;SDS011;64300;45.034;38.910;2022-11-15T18:01:33;19.60;;;8.52;;
75687;SDS011;64300;45.034;38.910;2022-11-15T18:04:03;17.58;;;8.73;;
75687;SDS011;64300;45.034;38.910;2022-11-15T18:10:19;19.00;;;7.90;;
75687;SDS011;64300;45.034;38.910;2022-11-15T18:12:45;25.00;;;8.73;;
75687;SDS011;64300;45.034;38.910;2022-11-15T18:17:37;22.48;;;8.93;;
75687;SDS011;64300;45.034;38.910;2022-11-15T18:20:03;17.35;;;8.43;;
75687;SDS011;64300;45.034;38.910;2022-11-15T18:22:29;21.98;;;10.15;;
75687;SDS011;64300;45.034;38.910;2022-11-15T18:24:55;24.05;;;9.55;;
75687;SDS011;64300;45.034;38.910;2022-11-15T18:27:21;22.55;;;9.90;;
75687;SDS011;64300;45.034;38.910;2022-11-15T18:29:51;19.63;;;9.88;;
75687;SDS011;64300;45.034;38.910;2022-11-15T18:32:17;18.55;;;9.15;;
75687;SDS011;64300;45.034;38.910;2022-11-15T18:34:43;21.00;;;9.10;;
75687;SDS011;64300;45.034;38.910;2022-11-15T18:37:09;21.65;;;10.55;;
75687;SDS011;64300;45.034;38.910;2022-11-15T18:39:35;21.77;;;10.13;;
75687;SDS011;64300;45.034;38.910;2022-11-15T18:42:02;20.85;;;9.57;;
75687;SDS011;64300;45.034;38.910;2022-11-15T18:44:28;19.50;;;9.80;;
75687;SDS011;64300;45.034;38.910;2022-11-15T18:46:55;17.75;;;9.98;;
75687;SDS011;64300;45.034;38.910;2022-11-15T18:51:47;21.13;;;10.38;;
75687;SDS011;64300;45.034;38.910;2022-11-15T18:54:13;20.15;;;9.85;;
75687;SDS011;64300;45.034;38.910;2022-11-15T18:56:40;21.02;;;9.20;;
75687;SDS011;64300;45.034;38.910;2022-11-15T18:59:08;19.95;;;10.45;;
75687;SDS011;64300;45.034;38.910;2022-11-15T19:01:35;21.63;;;9.98;;
75687;SDS011;64300;45.034;38.910;2022-11-15T19:04:08;26.00;;;11.18;;
75687;SDS011;64300;45.034;38.910;2022-11-15T19:06:41;22.80;;;10.73;;